createdAt,value
2022-09-02T00:01:23.288Z,19.65
2022-09-02T00:03:51.330Z,19.62
2022-09-02T00:06:18.821Z,19.67
2022-09-02T00:08:45.405Z,19.62
2022-09-02T00:14:11.569Z,19.54
2022-09-02T00:16:39.862Z,19.51
2022-09-02T00:19:06.380Z,19.63
2022-09-02T00:21:34.847Z,19.55
2022-09-02T00:24:03.885Z,19.56
2022-09-02T00:26:30.547Z,19.51
2022-09-02T00:28:57.237Z,19.58
2022-09-02T00:31:26.073Z,19.61
2022-09-02T00:33:52.611Z,19.47
2022-09-02T00:36:19.173Z,19.47
2022-09-02T00:38:45.746Z,19.51
2022-09-02T00:41:13.073Z,19.47
2022-09-02T00:43:56.658Z,19.51
2022-09-02T00:46:25.872Z,19.41
2022-09-02T00:49:15.578Z,19.65
2022-09-02T00:51:55.271Z,19.71
2022-09-02T00:54:23.976Z,19.84
2022-09-02T00:56:53.987Z,19.63
2022-09-02T00:59:35.480Z,20.00
2022-09-02T01:02:02.133Z,20.26
2022-09-02T01:04:28.757Z,20.38
2022-09-02T01:06:55.292Z,20.80
2022-09-02T01:09:22.008Z,21.17
2022-09-02T01:11:50.379Z,21.19
2022-09-02T01:14:16.918Z,21.39
2022-09-02T01:16:48.420Z,21.60
2022-09-02T01:19:25.303Z,21.73
2022-09-02T01:21:54.646Z,21.66
2022-09-02T01:24:25.939Z,21.50
2022-09-02T01:26:54.458Z,21.69
2022-09-02T01:29:21.774Z,21.82
2022-09-02T01:31:48.371Z,21.89
2022-09-02T01:34:15.132Z,22.03
2022-09-02T01:36:43.290Z,22.15
2022-09-02T01:39:12.315Z,22.23
2022-09-02T01:41:38.865Z,22.22
2022-09-02T01:44:06.195Z,22.10
2022-09-02T01:46:33.753Z,22.16
2022-09-02T01:49:00.415Z,22.13
2022-09-02T01:51:27.071Z,22.09
2022-09-02T01:53:53.567Z,22.06
2022-09-02T01:56:20.090Z,22.04
2022-09-02T01:58:46.570Z,22.01
2022-09-02T02:01:13.261Z,21.94
2022-09-02T02:03:41.060Z,22.07
2022-09-02T02:06:10.845Z,22.05
2022-09-02T02:08:37.755Z,21.53
2022-09-02T02:11:05.649Z,21.36
2022-09-02T02:13:33.570Z,21.47
2022-09-02T02:16:00.179Z,21.28
2022-09-02T02:18:26.941Z,21.28
2022-09-02T02:20:53.807Z,21.36
2022-09-02T02:23:20.465Z,21.31
2022-09-02T02:25:46.975Z,21.13
2022-09-02T02:28:13.518Z,21.18
2022-09-02T02:30:40.618Z,21.07
2022-09-02T02:33:07.189Z,21.18
2022-09-02T02:35:33.675Z,20.96
2022-09-02T02:38:02.906Z,21.10
2022-09-02T02:40:31.732Z,21.08
2022-09-02T02:42:58.907Z,21.19
2022-09-02T02:45:26.247Z,21.37
2022-09-02T02:47:53.223Z,21.52
2022-09-02T02:50:22.337Z,21.55
2022-09-02T02:52:49.557Z,21.67
2022-09-02T02:55:16.637Z,21.61
2022-09-02T02:57:45.226Z,21.73
2022-09-02T03:00:27.512Z,21.82
2022-09-02T03:03:07.071Z,21.83
2022-09-02T03:05:36.383Z,21.84
2022-09-02T03:08:05.626Z,21.87
2022-09-02T03:10:33.314Z,21.90
2022-09-02T03:13:01.282Z,21.79
2022-09-02T03:15:28.604Z,21.75
2022-09-02T03:17:56.745Z,21.59
2022-09-02T03:20:24.287Z,21.46
2022-09-02T03:22:54.996Z,21.39
2022-09-02T03:25:21.690Z,21.44
2022-09-02T03:27:49.854Z,21.52
2022-09-02T03:30:22.688Z,21.47
2022-09-02T03:32:49.189Z,21.53
2022-09-02T03:35:18.199Z,21.40
2022-09-02T03:37:46.224Z,21.40
2022-09-02T03:40:17.327Z,21.47
2022-09-02T03:42:46.936Z,21.50
2022-09-02T03:45:13.971Z,21.52
2022-09-02T03:47:40.765Z,21.52
2022-09-02T03:50:07.447Z,21.43
2022-09-02T03:52:33.938Z,21.50
2022-09-02T03:55:00.423Z,21.39
2022-09-02T03:57:27.127Z,21.34
2022-09-02T03:59:53.625Z,21.43
2022-09-02T04:02:20.254Z,21.45
2022-09-02T04:04:46.810Z,21.37
2022-09-02T04:07:13.492Z,21.41
2022-09-02T04:09:44.649Z,21.34
2022-09-02T04:12:13.106Z,21.40
2022-09-02T04:14:39.633Z,21.34
2022-09-02T04:17:06.109Z,21.32
2022-09-02T04:19:32.599Z,21.26
2022-09-02T04:21:59.111Z,21.32
2022-09-02T04:24:26.070Z,21.32
2022-09-02T04:26:52.588Z,21.31
2022-09-02T04:29:19.169Z,21.38
2022-09-02T04:31:45.867Z,21.45
2022-09-02T04:34:12.437Z,21.46
2022-09-02T04:36:38.913Z,21.45
2022-09-02T04:39:07.007Z,21.42
2022-09-02T04:41:33.499Z,21.34
2022-09-02T04:44:00.038Z,21.23
2022-09-02T04:46:34.158Z,21.25
2022-09-02T04:49:02.724Z,21.20
2022-09-02T04:51:29.636Z,21.26
2022-09-02T04:53:56.160Z,21.29
2022-09-02T04:56:26.655Z,21.26
2022-09-02T04:58:55.286Z,21.27
2022-09-02T05:01:26.606Z,21.24
2022-09-02T05:03:54.583Z,21.26
2022-09-02T05:06:24.908Z,21.10
2022-09-02T05:08:51.486Z,21.12
2022-09-02T05:11:22.019Z,21.17
2022-09-02T05:13:50.684Z,21.10
2022-09-02T05:16:19.354Z,21.10
2022-09-02T05:18:46.553Z,21.13
2022-09-02T05:21:13.051Z,21.14
2022-09-02T05:23:39.980Z,21.18
2022-09-02T05:26:09.227Z,21.17
2022-09-02T05:28:37.034Z,21.25
2022-09-02T05:31:14.168Z,21.29
2022-09-02T05:33:41.758Z,21.23
2022-09-02T05:36:14.553Z,21.32
2022-09-02T05:38:43.015Z,21.30
2022-09-02T05:41:12.528Z,21.32
2022-09-02T05:43:40.577Z,21.34
2022-09-02T05:46:10.376Z,21.44
2022-09-02T05:48:38.646Z,21.52
2022-09-02T05:51:07.239Z,21.53
2022-09-02T05:53:33.739Z,21.57
2022-09-02T05:56:04.520Z,21.56
2022-09-02T05:58:31.015Z,21.55
2022-09-02T06:00:58.324Z,21.49
2022-09-02T06:03:25.020Z,21.55
2022-09-02T06:06:02.964Z,21.61
2022-09-02T06:08:34.276Z,21.70
2022-09-02T06:11:02.146Z,21.76
2022-09-02T06:13:30.812Z,21.77
2022-09-02T06:15:57.773Z,21.83
2022-09-02T06:18:25.123Z,21.86
2022-09-02T06:20:53.445Z,21.93
2022-09-02T06:23:20.180Z,21.97
2022-09-02T06:25:48.949Z,22.03
2022-09-02T06:28:16.366Z,22.14
2022-09-02T06:30:45.348Z,22.08
2022-09-02T06:33:12.199Z,22.27
2022-09-02T06:35:42.386Z,22.38
2022-09-02T06:38:09.830Z,22.51
2022-09-02T06:40:45.404Z,22.52
2022-09-02T06:43:11.898Z,22.51
2022-09-02T06:45:42.720Z,22.71
2022-09-02T06:48:10.181Z,22.79
2022-09-02T06:50:42.934Z,22.88
2022-09-02T06:53:10.399Z,22.95
2022-09-02T06:55:39.255Z,22.82
2022-09-02T06:58:06.416Z,22.77
2022-09-02T07:00:33.558Z,23.02
2022-09-02T07:03:00.055Z,22.93
2022-09-02T07:05:26.559Z,23.10
2022-09-02T07:07:53.066Z,23.14
2022-09-02T07:10:19.628Z,23.25
2022-09-02T07:12:46.165Z,23.29
2022-09-02T07:15:12.730Z,23.37
2022-09-02T07:17:39.258Z,23.52
2022-09-02T07:20:07.089Z,23.45
2022-09-02T07:22:33.564Z,23.59
2022-09-02T07:25:00.105Z,23.64
2022-09-02T07:27:26.677Z,23.76
2022-09-02T07:29:53.139Z,23.81
2022-09-02T07:32:19.651Z,23.88
2022-09-02T07:34:46.180Z,23.59
2022-09-02T07:37:12.721Z,23.68
2022-09-02T07:39:39.342Z,23.72
2022-09-02T07:42:07.515Z,23.79
2022-09-02T07:44:34.395Z,23.40
2022-09-02T07:47:00.899Z,23.48
2022-09-02T07:49:27.954Z,23.71
2022-09-02T07:51:54.593Z,23.58
2022-09-02T07:54:25.154Z,23.67
2022-09-02T07:56:51.772Z,23.81
2022-09-02T07:59:19.360Z,23.37
2022-09-02T08:01:46.146Z,23.47
2022-09-02T08:04:13.182Z,23.25
2022-09-02T08:06:39.747Z,23.26
2022-09-02T08:09:09.393Z,23.29
2022-09-02T08:11:35.887Z,23.30
2022-09-02T08:14:02.416Z,23.11
2022-09-02T08:16:29.140Z,23.25
2022-09-02T08:18:55.986Z,23.38
2022-09-02T08:21:22.477Z,23.17
2022-09-02T08:23:48.995Z,23.30
2022-09-02T08:26:15.481Z,23.39
2022-09-02T08:28:42.012Z,23.39
2022-09-02T08:31:08.551Z,23.35
2022-09-02T08:33:35.400Z,23.55
2022-09-02T08:36:07.359Z,23.69
2022-09-02T08:38:35.273Z,23.60
2022-09-02T08:41:01.883Z,23.86
2022-09-02T08:43:39.108Z,23.71
2022-09-02T08:46:10.319Z,23.59
2022-09-02T08:48:51.193Z,23.73
2022-09-02T08:51:27.171Z,23.89
2022-09-02T08:54:04.287Z,24.14
2022-09-02T08:56:31.191Z,24.22
2022-09-02T08:58:58.056Z,24.07
2022-09-02T09:01:38.474Z,24.02
2022-09-02T09:04:12.645Z,24.21
2022-09-02T09:07:11.516Z,23.95
2022-09-02T09:09:57.837Z,24.15
2022-09-02T09:12:33.771Z,24.17
2022-09-02T09:15:13.911Z,24.47
2022-09-02T09:17:59.484Z,24.61
2022-09-02T09:20:28.843Z,24.57
2022-09-02T09:22:58.584Z,24.62
2022-09-02T09:25:26.906Z,24.88
2022-09-02T09:27:53.407Z,24.61
2022-09-02T09:30:19.896Z,24.74
2022-09-02T09:32:55.660Z,24.68
2022-09-02T09:35:22.442Z,24.65
2022-09-02T09:37:51.354Z,24.57
2022-09-02T09:40:17.874Z,24.83
2022-09-02T09:42:49.671Z,24.74
2022-09-02T09:45:27.670Z,25.03
2022-09-02T09:48:12.654Z,24.81
2022-09-02T09:50:39.210Z,24.99
2022-09-02T09:53:19.044Z,24.99
2022-09-02T09:55:55.876Z,25.15
2022-09-02T09:58:27.533Z,25.13
2022-09-02T10:00:54.155Z,24.88
2022-09-02T10:03:33.080Z,24.86
2022-09-02T10:06:19.274Z,24.80
2022-09-02T10:08:53.787Z,24.99
2022-09-02T10:11:26.631Z,25.09
2022-09-02T10:14:18.129Z,24.86
2022-09-02T10:17:00.978Z,24.91
2022-09-02T10:19:55.146Z,25.09
2022-09-02T10:22:53.118Z,25.10
2022-09-02T10:25:42.691Z,25.17
2022-09-02T10:28:21.061Z,25.33
2022-09-02T10:31:04.305Z,25.21
2022-09-02T10:33:40.886Z,25.39
2022-09-02T10:36:52.333Z,25.58
2022-09-02T10:39:28.856Z,25.33
2022-09-02T10:42:09.953Z,25.56
2022-09-02T10:45:03.540Z,25.67
2022-09-02T10:47:38.778Z,25.88
2022-09-02T10:50:34.818Z,25.96
2022-09-02T10:53:31.528Z,25.98
2022-09-02T10:56:12.354Z,26.09
2022-09-02T10:59:07.859Z,25.93
2022-09-02T11:01:46.625Z,25.95
2022-09-02T11:04:33.838Z,25.87
2022-09-02T11:07:04.337Z,25.86
2022-09-02T11:09:40.303Z,26.31
2022-09-02T11:12:09.257Z,26.48
2022-09-02T11:14:40.687Z,26.71
2022-09-02T11:17:32.689Z,26.43
2022-09-02T11:20:10.447Z,26.39
2022-09-02T11:22:58.592Z,26.46
2022-09-02T11:25:32.598Z,26.74
2022-09-02T11:28:20.815Z,26.45
2022-09-02T11:31:10.930Z,26.52
2022-09-02T11:33:55.446Z,26.33
2022-09-02T11:36:22.603Z,26.32
2022-09-02T11:39:05.139Z,26.41
2022-09-02T11:41:48.490Z,26.22
2022-09-02T11:44:36.345Z,26.56
2022-09-02T11:47:35.213Z,26.31
2022-09-02T11:50:17.090Z,26.32
2022-09-02T11:53:02.487Z,26.43
2022-09-02T11:55:37.541Z,26.20
2022-09-02T11:58:05.330Z,26.24
2022-09-02T12:00:56.586Z,26.20
2022-09-02T12:03:43.011Z,26.02
2022-09-02T12:06:17.217Z,26.23
2022-09-02T12:08:43.808Z,26.48
2022-09-02T12:11:40.573Z,26.69
2022-09-02T12:14:10.698Z,26.12
2022-09-02T12:16:43.785Z,26.31
2022-09-02T12:19:10.293Z,26.27
2022-09-02T12:22:14.999Z,25.95
2022-09-02T12:24:51.534Z,25.49
2022-09-02T12:27:24.804Z,25.58
2022-09-02T12:29:52.203Z,25.41
2022-09-02T12:32:46.477Z,24.60
2022-09-02T12:35:31.190Z,24.78
2022-09-02T12:38:25.569Z,24.46
2022-09-02T12:41:05.561Z,24.08
2022-09-02T12:44:09.734Z,23.62
2022-09-02T12:46:46.562Z,23.82
2022-09-02T12:49:33.401Z,23.82
2022-09-02T12:52:02.861Z,23.87
2022-09-02T12:54:42.875Z,24.26
2022-09-02T12:57:11.024Z,23.97
2022-09-02T12:59:39.996Z,23.79
2022-09-02T13:02:37.767Z,24.20
2022-09-02T13:05:26.023Z,24.55
2022-09-02T13:08:29.839Z,24.94
2022-09-02T13:11:16.269Z,25.26
2022-09-02T13:14:01.299Z,25.55
2022-09-02T13:16:44.535Z,25.74
2022-09-02T13:19:19.652Z,25.92
2022-09-02T13:22:04.647Z,26.03
2022-09-02T13:24:58.045Z,26.22
2022-09-02T13:27:52.057Z,26.37
2022-09-02T13:30:18.542Z,26.50
2022-09-02T13:32:56.603Z,26.57
2022-09-02T13:35:28.220Z,26.64
2022-09-02T13:38:01.150Z,26.92
2022-09-02T13:40:35.279Z,26.87
2022-09-02T13:43:15.700Z,27.21
2022-09-02T13:45:43.670Z,27.45
2022-09-02T13:48:18.363Z,27.85
2022-09-02T13:50:50.929Z,28.09
2022-09-02T13:54:18.209Z,28.61
2022-09-02T13:56:33.994Z,29.27
2022-09-02T13:59:00.489Z,29.80
2022-09-02T14:01:34.996Z,30.18
2022-09-02T14:04:11.559Z,30.57
2022-09-02T14:06:42.355Z,30.87
2022-09-02T14:09:21.705Z,30.92
2022-09-02T14:11:49.994Z,30.60
2022-09-02T14:14:21.723Z,30.67
2022-09-02T14:16:48.306Z,30.37
2022-09-02T14:19:14.830Z,30.32
2022-09-02T14:21:53.003Z,30.04
2022-09-02T14:24:36.820Z,29.55
2022-09-02T14:27:03.597Z,29.63
2022-09-02T14:29:31.057Z,29.19
2022-09-02T14:32:12.015Z,29.04
2022-09-02T14:34:40.025Z,29.04
2022-09-02T14:37:21.412Z,29.02
2022-09-02T14:40:12.041Z,28.98
2022-09-02T14:42:44.891Z,28.89
2022-09-02T14:45:12.633Z,28.94
2022-09-02T14:47:40.433Z,28.91
2022-09-02T14:50:12.583Z,28.94
2022-09-02T14:52:48.927Z,28.96
2022-09-02T14:55:57.007Z,28.91
2022-09-02T14:58:27.025Z,28.88
2022-09-02T15:00:57.792Z,28.53
2022-09-02T15:03:26.025Z,28.59
2022-09-02T15:05:52.631Z,28.64
2022-09-02T15:08:19.861Z,28.61
2022-09-02T15:10:47.146Z,28.66
2022-09-02T15:13:28.469Z,28.43
2022-09-02T15:15:55.983Z,28.52
2022-09-02T15:18:23.849Z,28.51
2022-09-02T15:20:50.874Z,28.42
2022-09-02T15:23:17.714Z,28.36
2022-09-02T15:25:44.795Z,28.00
2022-09-02T15:28:11.435Z,28.20
2022-09-02T15:30:38.003Z,28.16
2022-09-02T15:33:17.288Z,28.05
2022-09-02T15:35:44.649Z,27.74
2022-09-02T15:38:11.157Z,27.78
2022-09-02T15:40:37.655Z,27.52
2022-09-02T15:43:04.170Z,27.74
2022-09-02T15:45:30.661Z,27.96
2022-09-02T15:47:58.151Z,28.16
2022-09-02T15:50:25.012Z,28.33
2022-09-02T15:52:53.949Z,28.63
2022-09-02T15:55:24.911Z,28.77
2022-09-02T15:57:55.949Z,28.71
2022-09-02T16:00:22.455Z,29.01
2022-09-02T16:02:49.015Z,29.41
2022-09-02T16:05:15.556Z,29.88
2022-09-02T16:07:42.063Z,30.35
2022-09-02T16:10:09.747Z,30.86
2022-09-02T16:12:36.289Z,31.11
2022-09-02T16:15:02.882Z,31.50
2022-09-02T16:17:29.409Z,31.74
2022-09-02T16:19:55.902Z,32.01
2022-09-02T16:22:22.439Z,32.33
2022-09-02T16:24:48.941Z,32.50
2022-09-02T16:27:15.430Z,32.47
2022-09-02T16:29:41.917Z,32.24
2022-09-02T16:32:24.529Z,32.35
2022-09-02T16:34:54.209Z,32.24
2022-09-02T16:37:20.809Z,32.36
2022-09-02T16:39:47.325Z,32.64
2022-09-02T16:42:13.880Z,32.93
2022-09-02T16:44:40.503Z,33.22
2022-09-02T16:47:07.023Z,33.37
2022-09-02T16:49:33.530Z,33.36
2022-09-02T16:52:00.389Z,33.52
2022-09-02T16:54:31.228Z,33.66
2022-09-02T16:56:59.924Z,33.19
2022-09-02T16:59:26.439Z,32.76
2022-09-02T17:01:53.016Z,32.17
2022-09-02T17:04:19.672Z,31.59
2022-09-02T17:06:46.181Z,31.41
2022-09-02T17:09:12.661Z,31.02
2022-09-02T17:11:39.407Z,30.69
2022-09-02T17:14:09.371Z,30.39
2022-09-02T17:16:45.140Z,30.18
2022-09-02T17:19:12.110Z,29.91
2022-09-02T17:21:42.371Z,29.62
2022-09-02T17:24:12.108Z,29.44
2022-09-02T17:26:40.782Z,29.15
2022-09-02T17:29:37.970Z,29.00
2022-09-02T17:32:01.310Z,28.77
2022-09-02T17:34:27.855Z,28.62
2022-09-02T17:36:54.354Z,28.50
2022-09-02T17:39:20.927Z,28.27
2022-09-02T17:41:47.520Z,28.10
2022-09-02T17:44:15.494Z,27.96
2022-09-02T17:46:44.317Z,27.92
2022-09-02T17:49:17.176Z,27.74
2022-09-02T17:51:45.189Z,27.63
2022-09-02T17:54:13.636Z,27.50
2022-09-02T17:57:10.258Z,27.41
2022-09-02T18:00:02.428Z,27.23
2022-09-02T18:02:55.315Z,26.99
2022-09-02T18:05:42.745Z,26.88
2022-09-02T18:08:44.073Z,26.91
2022-09-02T18:11:12.941Z,26.82
2022-09-02T18:14:28.324Z,26.70
2022-09-02T18:16:54.781Z,26.66
2022-09-02T18:19:33.944Z,26.66
2022-09-02T18:22:27.455Z,26.08
2022-09-02T18:25:28.622Z,25.79
2022-09-02T18:28:26.370Z,25.65
2022-09-02T18:31:32.976Z,25.90
2022-09-02T18:34:30.566Z,25.96
2022-09-02T18:37:20.350Z,26.00
2022-09-02T18:40:02.833Z,25.96
2022-09-02T18:42:48.577Z,25.60
2022-09-02T18:45:46.247Z,25.56
2022-09-02T18:48:16.449Z,25.72
2022-09-02T18:50:52.210Z,25.81
2022-09-02T18:53:33.530Z,25.80
2022-09-02T18:56:07.326Z,25.72
2022-09-02T18:58:43.924Z,25.50
2022-09-02T19:01:32.125Z,25.50
2022-09-02T19:03:59.364Z,25.50
2022-09-02T19:06:30.388Z,25.52
2022-09-02T19:09:00.974Z,25.00
2022-09-02T19:11:27.714Z,25.04
2022-09-02T19:13:57.195Z,24.84
2022-09-02T19:16:27.761Z,24.86
2022-09-02T19:18:55.112Z,24.39
2022-09-02T19:21:35.655Z,24.35
2022-09-02T19:24:06.873Z,24.17
2022-09-02T19:26:33.911Z,23.97
2022-09-02T19:29:00.517Z,24.09
2022-09-02T19:31:28.985Z,24.20
2022-09-02T19:34:01.623Z,23.67
2022-09-02T19:36:31.558Z,23.87
2022-09-02T19:38:58.723Z,23.78
2022-09-02T19:41:25.300Z,23.98
2022-09-02T19:43:51.775Z,23.85
2022-09-02T19:46:45.405Z,23.75
2022-09-02T19:49:04.788Z,23.76
2022-09-02T19:51:31.279Z,23.87
2022-09-02T19:53:59.282Z,23.91
2022-09-02T19:56:25.809Z,24.04
2022-09-02T19:58:52.298Z,24.22
2022-09-02T20:01:18.925Z,24.05
2022-09-02T20:03:45.609Z,24.40
2022-09-02T20:06:12.113Z,24.63
2022-09-02T20:08:38.614Z,24.77
2022-09-02T20:11:06.630Z,24.90
2022-09-02T20:13:38.598Z,24.94
2022-09-02T20:16:16.585Z,25.03
2022-09-02T20:18:43.465Z,25.11
2022-09-02T20:21:10.140Z,25.03
2022-09-02T20:23:36.751Z,24.89
2022-09-02T20:26:23.555Z,24.95
2022-09-02T20:28:52.674Z,25.03
2022-09-02T20:32:03.467Z,25.12
2022-09-02T20:34:45.131Z,25.22
2022-09-02T20:37:51.072Z,25.25
2022-09-02T20:40:56.403Z,25.21
2022-09-02T20:43:57.557Z,25.26
2022-09-02T20:46:45.275Z,24.75
2022-09-02T20:49:47.374Z,24.59
2022-09-02T20:52:59.083Z,24.12
2022-09-02T20:56:09.752Z,23.91
2022-09-02T20:59:03.118Z,24.05
2022-09-02T21:01:35.527Z,23.97
2022-09-02T21:04:20.080Z,23.21
2022-09-02T21:07:00.813Z,23.67
2022-09-02T21:09:52.746Z,23.62
2022-09-02T21:12:38.240Z,23.78
2022-09-02T21:15:07.292Z,23.62
2022-09-02T21:17:52.597Z,22.40
2022-09-02T21:20:24.775Z,22.73
2022-09-02T21:22:59.162Z,22.13
2022-09-02T21:25:41.732Z,21.26
2022-09-02T21:28:21.872Z,20.83
2022-09-02T21:31:00.257Z,20.92
2022-09-02T21:33:31.146Z,21.02
2022-09-02T21:36:01.177Z,21.04
2022-09-02T21:38:43.855Z,21.39
2022-09-02T21:41:30.489Z,21.69
2022-09-02T21:44:18.474Z,21.47
2022-09-02T21:47:09.665Z,21.31
2022-09-02T21:50:03.278Z,21.62
2022-09-02T21:52:57.135Z,21.76
2022-09-02T21:55:39.611Z,21.48
2022-09-02T21:58:24.690Z,21.18
2022-09-02T22:01:29.164Z,21.10
2022-09-02T22:04:06.895Z,20.66
2022-09-02T22:06:37.009Z,21.16
2022-09-02T22:09:15.668Z,21.13
2022-09-02T22:11:54.442Z,21.52
2022-09-02T22:14:43.247Z,20.97
2022-09-02T22:17:12.617Z,21.22
2022-09-02T22:19:40.572Z,21.59
2022-09-02T22:22:16.300Z,21.76
2022-09-02T22:24:43.092Z,21.89
2022-09-02T22:27:17.955Z,22.12
2022-09-02T22:30:05.494Z,21.97
2022-09-02T22:32:40.841Z,21.97
2022-09-02T22:35:30.871Z,22.02
2022-09-02T22:38:02.829Z,22.12
2022-09-02T22:40:38.362Z,22.27
2022-09-02T22:43:12.264Z,22.31
2022-09-02T22:45:59.039Z,22.42
2022-09-02T22:48:45.584Z,22.38
2022-09-02T22:51:40.684Z,21.98
2022-09-02T22:54:07.315Z,21.73
2022-09-02T22:56:56.106Z,21.98
2022-09-02T23:00:00.152Z,21.82
2022-09-02T23:02:38.982Z,21.64
2022-09-02T23:05:18.185Z,21.96
2022-09-02T23:07:44.682Z,21.81
2022-09-02T23:10:22.576Z,21.34
2022-09-02T23:13:03.184Z,21.64
2022-09-02T23:15:43.855Z,21.65
2022-09-02T23:18:47.792Z,21.56
2022-09-02T23:21:34.178Z,21.14
2022-09-02T23:24:29.607Z,20.75
2022-09-02T23:27:14.626Z,20.68
2022-09-02T23:29:42.022Z,20.40
2022-09-02T23:32:39.058Z,20.12
2022-09-02T23:35:13.470Z,19.90
2022-09-02T23:37:54.848Z,20.09
2022-09-02T23:40:33.736Z,20.41
2022-09-02T23:43:00.213Z,20.55
2022-09-02T23:45:29.189Z,20.86
2022-09-02T23:48:07.794Z,20.73
2022-09-02T23:50:53.072Z,21.29
2022-09-02T23:54:01.441Z,21.31
2022-09-02T23:56:46.629Z,21.69
2022-09-02T23:59:30.623Z,21.48
